Time;durP1;ratioP1;P1;durP2;ratioP2;P2;SDS_P1;SDS_P2;PMS_P1;PMS_P2;Temp;Humidity;BMP_temperature;BMP_pressure;BME280_temperature;BME280_humidity;BME280_pressure;Samples;Min_cycle;Max_cycle;Signal;HPM_P1;HPM_P2
2022/04/04 05:01:24;;;;;;;13.82;8.55;;;-2.00;99.90;;;;;;5418989;23;20115;-92
2022/04/04 05:03:52;;;;;;;13.98;8.88;;;-2.10;99.90;;;;;;4959756;28;20062;-90
2022/04/04 05:06:20;;;;;;;12.93;7.72;;;-2.00;99.90;;;;;;4957580;29;20058;-93
2022/04/04 05:08:47;;;;;;;12.32;7.68;;;-1.90;99.90;;;;;;4955180;29;20038;-91
2022/04/04 05:11:15;;;;;;;11.35;7.30;;;-1.80;99.90;;;;;;4953994;29;20055;-95
2022/04/04 05:13:42;;;;;;;13.80;8.35;;;-1.90;99.90;;;;;;4950875;29;20082;-90
2022/04/04 05:16:10;;;;;;;12.15;7.82;;;-2.00;99.90;;;;;;4955358;29;20062;-91
2022/04/04 05:18:39;;;;;;;12.38;7.68;;;-2.10;99.90;;;;;;4939214;29;20075;-92
2022/04/04 05:21:08;;;;;;;13.68;8.23;;;-2.30;99.90;;;;;;4956949;29;20044;-91
2022/04/04 05:23:35;;;;;;;13.88;7.75;;;-2.50;99.90;;;;;;4960868;29;20036;-91
2022/04/04 05:26:04;;;;;;;13.90;8.00;;;-2.30;99.90;;;;;;4961939;28;20040;-92
2022/04/04 05:28:32;;;;;;;14.20;7.82;;;-2.20;99.90;;;;;;4945645;29;20039;-92
2022/04/04 05:31:00;;;;;;;12.18;7.65;;;-2.20;99.90;;;;;;4974950;29;20051;-91
2022/04/04 05:33:27;;;;;;;12.00;7.25;;;-2.00;99.90;;;;;;4960535;29;20055;-92
2022/04/04 05:35:56;;;;;;;12.85;7.55;;;-2.00;99.90;;;;;;4960281;29;20048;-90
2022/04/04 05:38:23;;;;;;;13.35;7.55;;;-2.10;99.90;;;;;;4961191;29;20107;-93
2022/04/04 05:40:50;;;;;;;12.43;7.30;;;-2.00;99.90;;;;;;4944518;29;20052;-90
2022/04/04 05:43:18;;;;;;;13.10;7.35;;;-2.10;99.90;;;;;;4944595;29;20052;-94
2022/04/04 05:45:45;;;;;;;12.15;7.20;;;-2.10;99.90;;;;;;4960210;29;20051;-93
2022/04/04 05:48:12;;;;;;;12.73;7.32;;;-2.10;99.90;;;;;;4956839;29;20055;-92
2022/04/04 05:50:40;;;;;;;12.07;7.20;;;-2.10;99.90;;;;;;4956020;29;20087;-90
2022/04/04 05:53:09;;;;;;;11.98;6.90;;;-2.00;99.90;;;;;;4958624;29;20044;-93
2022/04/04 05:55:36;;;;;;;11.60;7.40;;;-2.00;99.90;;;;;;4958715;29;20047;-92
2022/04/04 05:58:03;;;;;;;13.60;7.32;;;-2.00;99.90;;;;;;4940632;29;20060;-91
2022/04/04 06:00:31;;;;;;;13.52;7.72;;;-1.90;99.90;;;;;;4971837;29;20035;-91
2022/04/04 06:02:59;;;;;;;11.55;7.30;;;-2.00;99.90;;;;;;4960855;29;20083;-93
2022/04/04 06:05:27;;;;;;;15.00;7.50;;;-2.10;99.90;;;;;;4941018;29;20058;-90
2022/04/04 06:07:54;;;;;;;12.48;7.57;;;-1.90;99.90;;;;;;4939772;29;20062;-93
2022/04/04 06:10:23;;;;;;;13.35;7.50;;;-2.00;99.90;;;;;;4955673;29;20056;-91
2022/04/04 06:12:50;;;;;;;12.90;8.02;;;-2.20;99.90;;;;;;4954813;29;20071;-90
2022/04/04 06:15:17;;;;;;;12.23;7.70;;;-2.20;99.90;;;;;;4955139;29;20063;-94
2022/04/04 06:17:45;;;;;;;11.23;7.38;;;-2.10;99.90;;;;;;4950596;29;20087;-92
2022/04/04 06:20:13;;;;;;;12.43;7.60;;;-2.30;99.90;;;;;;4944668;29;20056;-89
2022/04/04 06:22:42;;;;;;;13.60;7.78;;;-2.10;99.90;;;;;;4945378;29;20412;-92
2022/04/04 06:25:12;;;;;;;13.85;8.10;;;-2.00;99.90;;;;;;4946233;29;20075;-89
2022/04/04 06:27:41;;;;;;;12.93;7.75;;;-2.10;99.90;;;;;;4945927;29;20083;-91
2022/04/04 06:30:10;;;;;;;11.85;7.63;;;-2.00;99.90;;;;;;4946561;29;20055;-91
2022/04/04 06:32:41;;;;;;;14.05;8.02;;;-2.00;99.90;;;;;;4946501;29;20043;-91
2022/04/04 06:35:09;;;;;;;12.40;8.10;;;-2.00;99.90;;;;;;4929798;29;20400;-91
2022/04/04 06:37:36;;;;;;;12.60;7.95;;;-2.00;99.90;;;;;;4934108;29;20055;-89
2022/04/04 06:40:06;;;;;;;16.25;8.32;;;-1.90;99.90;;;;;;4955778;29;20067;-92
2022/04/04 06:42:36;;;;;;;13.43;7.70;;;-1.90;99.90;;;;;;4955173;29;20056;-90
2022/04/04 06:45:07;;;;;;;13.55;7.93;;;-1.80;99.90;;;;;;4958618;29;20059;-91
2022/04/04 06:47:36;;;;;;;13.52;8.13;;;-1.60;99.90;;;;;;4959997;29;20047;-91
2022/04/04 06:50:07;;;;;;;15.73;8.75;;;-1.50;99.90;;;;;;4960124;28;20052;-91
2022/04/04 06:52:35;;;;;;;13.77;8.55;;;-1.60;99.90;;;;;;4941532;29;20052;-93
2022/04/04 06:55:03;;;;;;;14.18;9.10;;;-1.40;99.90;;;;;;4957358;29;20072;-91
2022/04/04 06:57:31;;;;;;;15.20;9.23;;;-1.40;99.90;;;;;;4955163;29;20062;-90
2022/04/04 07:00:02;;;;;;;15.43;8.93;;;-1.40;99.90;;;;;;4940864;29;20075;-89
2022/04/04 07:02:32;;;;;;;15.23;9.85;;;-1.20;99.90;;;;;;4935222;29;20042;-90
2022/04/04 07:05:01;;;;;;;15.98;9.63;;;-1.20;99.90;;;;;;4958958;29;20071;-90
2022/04/04 07:07:28;;;;;;;16.02;9.05;;;-1.00;99.90;;;;;;4943706;29;20071;-93
2022/04/04 07:09:56;;;;;;;18.77;9.70;;;-0.90;99.90;;;;;;4957340;28;20047;-92
2022/04/04 07:12:23;;;;;;;14.88;9.20;;;-0.90;99.90;;;;;;4935119;29;20285;-93
2022/04/04 07:14:53;;;;;;;17.20;9.70;;;-0.80;99.90;;;;;;4945423;29;20067;-91
2022/04/04 07:17:20;;;;;;;20.10;10.93;;;-0.70;99.90;;;;;;4944293;29;20055;-92
2022/04/04 07:19:49;;;;;;;14.50;9.20;;;-0.60;99.90;;;;;;4959142;28;20067;-90
2022/04/04 07:22:16;;;;;;;17.02;9.57;;;-0.50;99.90;;;;;;4932195;29;20036;-91
2022/04/04 07:24:44;;;;;;;15.60;9.15;;;-0.40;99.90;;;;;;4940517;29;20032;-93
2022/04/04 07:27:12;;;;;;;16.35;8.85;;;-0.40;99.90;;;;;;4938735;29;20064;-92
2022/04/04 07:29:39;;;;;;;14.73;9.15;;;-0.40;99.90;;;;;;4923139;29;20052;-91
2022/04/04 07:32:11;;;;;;;14.85;9.75;;;-0.30;99.90;;;;;;4915584;29;20056;-91
2022/04/04 07:34:43;;;;;;;14.70;9.15;;;-0.30;99.90;;;;;;4929456;29;20048;-91
2022/04/04 07:37:12;;;;;;;15.93;9.50;;;-0.10;99.90;;;;;;4939096;29;20055;-93
2022/04/04 07:39:41;;;;;;;15.52;9.18;;;-0.10;99.90;;;;;;4935957;29;20099;-91
2022/04/04 07:42:09;;;;;;;15.02;9.30;;;-0.10;99.90;;;;;;4924541;29;20064;-89
2022/04/04 07:44:42;;;;;;;13.90;8.70;;;0.00;99.90;;;;;;4924498;29;20537;-91
2022/04/04 07:47:10;;;;;;;14.98;8.93;;;0.00;99.90;;;;;;4925060;29;20048;-91
2022/04/04 07:49:41;;;;;;;16.50;9.18;;;0.00;99.90;;;;;;4910140;29;20048;-90
2022/04/04 07:52:17;;;;;;;23.20;13.35;;;0.00;99.90;;;;;;4923960;29;20047;-90
2022/04/04 07:54:45;;;;;;;33.70;17.33;;;0.20;99.90;;;;;;4906561;29;20056;-90
2022/04/04 07:57:13;;;;;;;16.20;10.00;;;0.10;99.90;;;;;;4927285;29;20055;-90
2022/04/04 07:59:42;;;;;;;14.00;8.35;;;0.30;99.90;;;;;;4923473;29;20103;-90
2022/04/04 08:02:15;;;;;;;14.32;8.73;;;0.40;99.90;;;;;;4922942;29;20064;-91
2022/04/04 08:04:43;;;;;;;14.25;8.52;;;0.40;99.90;;;;;;4906021;29;20060;-90
2022/04/04 08:07:12;;;;;;;13.73;8.60;;;0.50;99.90;;;;;;4922347;29;20371;-89
2022/04/04 08:09:40;;;;;;;14.43;8.63;;;0.50;99.90;;;;;;4923481;29;20059;-91
2022/04/04 08:12:08;;;;;;;14.05;8.65;;;0.60;99.90;;;;;;4932617;29;20126;-89
2022/04/04 08:14:36;;;;;;;13.60;8.40;;;0.70;99.90;;;;;;4943585;29;20058;-91
2022/04/04 08:17:04;;;;;;;13.55;8.15;;;0.80;99.90;;;;;;4941642;29;20074;-93
2022/04/04 08:19:32;;;;;;;14.40;8.25;;;0.80;99.90;;;;;;4946937;29;20063;-91
2022/04/04 08:22:00;;;;;;;13.52;8.02;;;0.80;99.90;;;;;;4942302;29;20048;-92
2022/04/04 08:24:30;;;;;;;13.20;7.82;;;0.90;99.90;;;;;;4940139;29;20062;-92
2022/04/04 08:26:58;;;;;;;11.48;7.20;;;0.90;99.90;;;;;;4948116;29;20068;-96
2022/04/04 08:29:25;;;;;;;14.10;7.97;;;1.00;99.90;;;;;;4947138;29;20079;-91
2022/04/04 08:31:53;;;;;;;14.25;7.95;;;1.00;99.90;;;;;;4938182;29;20075;-92
2022/04/04 08:34:21;;;;;;;11.55;7.28;;;1.10;99.90;;;;;;4937635;29;20585;-92
2022/04/04 08:36:49;;;;;;;12.20;7.35;;;1.20;99.90;;;;;;4936798;29;20059;-95
2022/04/04 08:39:17;;;;;;;12.43;7.32;;;1.30;99.90;;;;;;4940206;29;20235;-93
2022/04/04 08:41:46;;;;;;;10.90;6.63;;;1.30;99.90;;;;;;4937484;29;20044;-92
2022/04/04 08:44:17;;;;;;;12.32;7.80;;;1.50;99.90;;;;;;4938935;29;20071;-90
2022/04/04 08:46:47;;;;;;;12.23;7.78;;;1.60;99.90;;;;;;4939275;29;20125;-93
2022/04/04 08:49:16;;;;;;;13.88;7.35;;;1.60;99.50;;;;;;4938181;29;20504;-92
2022/04/04 08:54:34;;;;;;;11.93;7.07;;;1.80;99.60;;;;;;4944976;29;20107;-92
2022/04/04 08:57:06;;;;;;;11.15;6.78;;;2.00;99.00;;;;;;4948853;29;20051;-93
2022/04/04 08:59:35;;;;;;;10.93;6.80;;;2.00;97.80;;;;;;4930712;29;20073;-94
2022/04/04 09:02:04;;;;;;;9.85;6.32;;;2.10;97.50;;;;;;4945288;29;20420;-94
2022/04/04 09:04:33;;;;;;;9.95;6.28;;;2.10;96.80;;;;;;4951700;29;20071;-96
2022/04/04 09:07:07;;;;;;;11.65;6.40;;;2.20;96.70;;;;;;4958157;29;20273;-96
2022/04/04 09:09:52;;;;;;;9.77;6.05;;;2.40;95.90;;;;;;4944811;29;20051;-96
2022/04/04 09:12:26;;;;;;;13.73;7.53;;;2.40;94.20;;;;;;4959008;29;20056;-94
2022/04/04 09:14:58;;;;;;;9.65;5.63;;;2.30;93.30;;;;;;4957458;29;20051;-94
2022/04/04 09:17:33;;;;;;;9.32;5.40;;;2.40;93.10;;;;;;4965748;28;20056;-94
2022/04/04 09:20:10;;;;;;;9.57;5.60;;;2.60;92.00;;;;;;4943141;29;20051;-96
2022/04/04 09:22:52;;;;;;;8.25;5.65;;;2.60;92.40;;;;;;4941285;29;20062;-94
2022/04/04 09:25:36;;;;;;;9.75;5.85;;;2.70;91.30;;;;;;4950453;29;20059;-95
2022/04/04 09:28:17;;;;;;;9.63;5.53;;;2.70;91.20;;;;;;4948799;29;20056;-96
2022/04/04 09:30:46;;;;;;;8.48;5.55;;;2.80;90.60;;;;;;4944429;29;20134;-95
2022/04/04 09:33:17;;;;;;;10.38;6.35;;;2.90;91.10;;;;;;4942274;29;20055;-94
2022/04/04 09:35:48;;;;;;;9.95;5.93;;;3.00;92.60;;;;;;4940316;29;20485;-95
2022/04/04 09:38:16;;;;;;;9.48;5.45;;;3.00;88.60;;;;;;4944120;29;20063;-96
2022/04/04 09:40:44;;;;;;;7.63;5.13;;;3.00;85.70;;;;;;4941622;29;20070;-96
2022/04/04 09:43:12;;;;;;;7.85;4.82;;;3.10;83.30;;;;;;4925688;29;20047;-93
2022/04/04 09:45:43;;;;;;;8.25;4.65;;;3.00;81.10;;;;;;4941687;29;20051;-93
2022/04/04 09:48:12;;;;;;;8.98;5.75;;;3.00;79.90;;;;;;4926090;29;20059;-94
2022/04/04 09:50:44;;;;;;;8.23;4.68;;;3.10;79.40;;;;;;4925567;29;20048;-96
2022/04/04 09:53:20;;;;;;;8.05;4.93;;;3.10;79.30;;;;;;4945232;29;20048;-96
2022/04/04 09:55:52;;;;;;;9.50;5.10;;;3.20;79.90;;;;;;4944725;29;20063;-93
2022/04/04 09:58:25;;;;;;;9.38;5.43;;;3.10;79.80;;;;;;4932827;29;20056;-94
2022/04/04 10:01:37;;;;;;;7.43;4.85;;;3.30;81.00;;;;;;4956857;29;20039;-95
2022/04/04 10:04:09;;;;;;;12.80;6.95;;;3.20;80.50;;;;;;4949651;29;20486;-94
2022/04/04 10:09:31;;;;;;;15.20;8.02;;;3.30;80.30;;;;;;4942881;29;20051;-96
2022/04/04 10:12:14;;;;;;;8.70;5.13;;;3.50;78.60;;;;;;4943200;29;20457;-95
2022/04/04 10:14:44;;;;;;;8.15;5.00;;;3.50;75.90;;;;;;4950022;29;20047;-97
2022/04/04 10:17:19;;;;;;;8.40;4.40;;;3.50;75.50;;;;;;4947563;29;20103;-96
2022/04/04 10:19:49;;;;;;;7.40;4.60;;;3.50;76.80;;;;;;4942296;29;20059;-94
2022/04/04 10:22:20;;;;;;;7.38;5.22;;;3.60;75.60;;;;;;4941708;29;20066;-94
2022/04/04 10:24:50;;;;;;;7.88;4.63;;;3.70;73.50;;;;;;4941737;29;20463;-93
2022/04/04 10:27:20;;;;;;;7.07;4.50;;;3.60;69.50;;;;;;4942917;29;20059;-95
2022/04/04 10:29:57;;;;;;;7.93;4.97;;;3.60;70.90;;;;;;4941540;29;20603;-96
2022/04/04 10:32:28;;;;;;;8.15;4.88;;;3.80;71.50;;;;;;4943150;29;20067;-95
2022/04/04 10:35:00;;;;;;;8.38;4.88;;;3.70;69.60;;;;;;4941974;29;20058;-94
2022/04/04 10:37:32;;;;;;;7.72;4.38;;;3.80;68.20;;;;;;4945251;29;20059;-94
2022/04/04 10:40:00;;;;;;;7.93;4.85;;;3.80;66.80;;;;;;4945780;29;20055;-95
2022/04/04 10:42:32;;;;;;;6.85;4.53;;;3.90;66.70;;;;;;4945515;29;20056;-96
2022/04/04 10:45:04;;;;;;;8.20;5.35;;;3.90;66.90;;;;;;4943806;29;20058;-96
2022/04/04 10:47:39;;;;;;;8.77;5.47;;;3.90;66.10;;;;;;4943510;29;20103;-96
2022/04/04 10:50:29;;;;;;;7.25;5.00;;;4.00;66.10;;;;;;4941275;29;20059;-96
2022/04/04 10:53:02;;;;;;;8.93;5.93;;;4.10;67.90;;;;;;4941061;29;20051;-94
2022/04/04 10:55:48;;;;;;;9.15;5.35;;;4.20;73.20;;;;;;4941109;29;20088;-96
2022/04/04 10:58:26;;;;;;;9.82;5.43;;;4.30;71.00;;;;;;4940635;29;20055;-93
2022/04/04 11:01:07;;;;;;;13.35;8.45;;;4.10;70.20;;;;;;4940039;29;20114;-95
2022/04/04 11:03:39;;;;;;;11.25;6.75;;;4.30;70.90;;;;;;4939756;29;20059;-94
2022/04/04 11:09:15;;;;;;;7.78;5.18;;;4.60;74.30;;;;;;4940144;29;20054;-92
2022/04/04 11:11:45;;;;;;;7.22;4.85;;;4.60;71.20;;;;;;4938330;29;20052;-93
2022/04/04 11:14:13;;;;;;;8.80;5.70;;;4.70;72.50;;;;;;4937650;29;20055;-93
2022/04/04 11:17:23;;;;;;;7.82;5.38;;;4.90;74.00;;;;;;4936968;29;20420;-88
2022/04/04 11:19:57;;;;;;;8.25;5.82;;;4.80;72.30;;;;;;4937360;29;20532;-94
2022/04/04 11:22:27;;;;;;;8.82;5.43;;;4.80;71.20;;;;;;4938695;29;20516;-94
2022/04/04 11:24:58;;;;;;;9.73;5.97;;;4.80;72.90;;;;;;4938200;29;20058;-92
2022/04/04 11:27:28;;;;;;;8.57;5.65;;;4.90;73.00;;;;;;4936991;29;20059;-91
2022/04/04 11:29:56;;;;;;;9.80;5.75;;;4.70;72.70;;;;;;4940796;29;20118;-92
2022/04/04 11:32:30;;;;;;;8.93;5.57;;;5.00;73.40;;;;;;4938263;29;20080;-92
2022/04/04 11:35:03;;;;;;;10.55;5.60;;;4.90;72.50;;;;;;4936009;29;20087;-95
2022/04/04 11:37:32;;;;;;;8.20;5.70;;;4.90;73.30;;;;;;4938315;29;20060;-91
2022/04/04 11:40:06;;;;;;;8.32;5.30;;;4.90;70.80;;;;;;4938218;29;20119;-94
2022/04/04 11:42:42;;;;;;;9.13;6.03;;;5.00;71.10;;;;;;4939991;29;20059;-94
2022/04/04 11:45:13;;;;;;;11.63;5.50;;;5.20;73.70;;;;;;4939573;29;20048;-90
2022/04/04 11:47:42;;;;;;;8.27;5.80;;;5.30;73.00;;;;;;4939618;29;20055;-92
2022/04/04 11:53:02;;;;;;;8.00;5.25;;;5.30;68.90;;;;;;4939868;29;20047;-94
2022/04/04 12:06:57;;;;;;;6.65;4.72;;;5.70;68.60;;;;;;4955710;29;20051;-86
2022/04/04 12:09:30;;;;;;;8.60;4.80;;;5.90;69.80;;;;;;4939097;29;20055;-94
2022/04/04 12:12:09;;;;;;;6.88;4.68;;;5.80;68.40;;;;;;4954657;29;20040;-90
2022/04/04 12:14:39;;;;;;;7.88;5.00;;;5.80;67.70;;;;;;4953099;29;20071;-89
2022/04/04 12:17:07;;;;;;;8.18;4.55;;;5.90;66.90;;;;;;4953810;29;20062;-90
2022/04/04 12:19:42;;;;;;;7.70;4.68;;;6.00;68.00;;;;;;4933373;29;20059;-87
2022/04/04 12:25:01;;;;;;;9.00;5.55;;;6.00;67.20;;;;;;4946965;29;20513;-87
2022/04/04 12:27:29;;;;;;;7.07;4.80;;;6.10;68.70;;;;;;4942007;29;20055;-84
2022/04/04 12:30:01;;;;;;;7.38;4.78;;;6.40;66.30;;;;;;4920588;29;20086;-85
2022/04/04 12:32:34;;;;;;;7.35;4.97;;;6.30;66.80;;;;;;4942696;29;20150;-87
2022/04/04 12:35:06;;;;;;;6.82;5.00;;;6.30;68.40;;;;;;4940704;29;20059;-88
2022/04/04 12:37:38;;;;;;;7.65;4.90;;;6.40;69.70;;;;;;4921000;29;20052;-86
2022/04/04 12:40:20;;;;;;;6.25;4.28;;;6.70;67.60;;;;;;4952023;29;20054;-85
2022/04/04 12:42:51;;;;;;;7.30;4.82;;;6.50;65.30;;;;;;4934539;29;20052;-84
2022/04/04 12:45:20;;;;;;;7.85;5.18;;;6.70;66.90;;;;;;4937547;29;20511;-84
2022/04/04 12:48:01;;;;;;;7.05;4.35;;;6.70;64.40;;;;;;4939180;29;20509;-86
2022/04/04 12:50:39;;;;;;;8.13;4.70;;;6.80;64.60;;;;;;4937460;29;20114;-86
2022/04/04 12:53:11;;;;;;;7.25;4.68;;;7.10;64.80;;;;;;4937365;29;20119;-86
2022/04/04 12:55:43;;;;;;;7.63;4.60;;;7.00;63.70;;;;;;4936566;29;20131;-87
2022/04/04 12:58:22;;;;;;;7.18;4.65;;;7.40;63.80;;;;;;4936628;29;20071;-82
2022/04/04 13:00:49;;;;;;;7.35;4.80;;;7.60;63.90;;;;;;4936875;29;20056;-82
2022/04/04 13:03:26;;;;;;;7.82;4.75;;;7.40;62.40;;;;;;4937037;29;20163;-83
2022/04/04 13:05:55;;;;;;;7.90;4.82;;;7.90;62.60;;;;;;4938305;29;20106;-83
2022/04/04 13:08:25;;;;;;;6.65;4.38;;;7.90;63.00;;;;;;4920965;29;20055;-82
2022/04/04 13:11:06;;;;;;;6.40;4.32;;;8.00;63.70;;;;;;4936831;29;20502;-81
2022/04/04 13:13:34;;;;;;;6.53;4.50;;;8.10;60.20;;;;;;4936556;29;20052;-83
2022/04/04 13:16:03;;;;;;;6.80;4.50;;;7.90;59.90;;;;;;4936544;29;20054;-81
2022/04/04 13:18:30;;;;;;;7.13;4.80;;;8.00;62.50;;;;;;4937382;29;20060;-81
2022/04/04 13:20:57;;;;;;;8.93;5.18;;;8.40;60.50;;;;;;4937474;29;20467;-80
2022/04/04 13:23:26;;;;;;;7.05;5.03;;;8.50;59.90;;;;;;4937441;29;20083;-82
2022/04/04 13:25:53;;;;;;;6.88;4.90;;;8.20;62.10;;;;;;4936963;29;20087;-83
2022/04/04 13:28:21;;;;;;;6.25;4.40;;;8.10;62.30;;;;;;4935815;29;20082;-82
2022/04/04 13:30:56;;;;;;;7.45;4.85;;;8.20;59.40;;;;;;4936895;29;20062;-83
2022/04/04 13:33:24;;;;;;;7.40;4.90;;;8.50;60.30;;;;;;4936499;29;20052;-82
2022/04/04 13:35:51;;;;;;;7.28;4.47;;;8.50;57.90;;;;;;4914873;29;20052;-82
2022/04/04 13:38:19;;;;;;;8.00;4.90;;;8.90;58.80;;;;;;4936053;29;20509;-82
2022/04/04 13:40:47;;;;;;;6.40;4.60;;;9.10;56.90;;;;;;4936140;29;20084;-82
2022/04/04 13:43:14;;;;;;;6.82;4.40;;;9.60;58.00;;;;;;4935622;29;20047;-80
2022/04/04 13:45:42;;;;;;;7.10;4.63;;;10.00;56.50;;;;;;4938649;29;20115;-80
2022/04/04 13:48:09;;;;;;;6.93;5.10;;;9.80;57.00;;;;;;4938939;29;20284;-81
2022/04/04 13:50:36;;;;;;;7.00;5.18;;;9.20;57.70;;;;;;4938178;29;20134;-79
2022/04/04 13:53:07;;;;;;;7.28;5.30;;;9.00;59.00;;;;;;4947000;29;20487;-87
2022/04/04 13:58:43;;;;;;;7.85;5.15;;;8.90;59.70;;;;;;4943136;29;20061;-85
2022/04/04 14:03:54;;;;;;;7.47;4.78;;;9.60;58.70;;;;;;4948049;29;20086;-86
2022/04/04 14:06:22;;;;;;;7.40;4.88;;;9.60;56.30;;;;;;4926451;29;20051;-86
2022/04/04 14:08:51;;;;;;;7.30;4.78;;;9.60;56.40;;;;;;4925658;29;20147;-84
2022/04/04 14:11:28;;;;;;;6.80;4.50;;;9.50;55.40;;;;;;4942922;29;20052;-84
2022/04/04 14:14:00;;;;;;;6.55;4.28;;;9.40;55.00;;;;;;4943376;29;20087;-84
2022/04/04 14:16:28;;;;;;;7.03;4.65;;;9.00;55.50;;;;;;4943519;29;20058;-85
2022/04/04 14:18:55;;;;;;;6.82;4.53;;;9.30;55.80;;;;;;4945651;29;20059;-84
2022/04/04 14:21:22;;;;;;;7.32;4.32;;;9.90;54.60;;;;;;4942182;29;20146;-85
2022/04/04 14:23:49;;;;;;;8.85;5.25;;;9.60;55.10;;;;;;4940649;29;20082;-84
2022/04/04 14:26:17;;;;;;;6.93;4.70;;;9.10;56.00;;;;;;4941821;29;20044;-85
2022/04/04 14:28:44;;;;;;;7.88;5.00;;;9.10;56.20;;;;;;4925943;29;20059;-86
2022/04/04 14:31:13;;;;;;;8.65;5.25;;;9.10;57.30;;;;;;4939794;29;20058;-87
2022/04/04 14:33:40;;;;;;;7.10;4.72;;;8.60;56.60;;;;;;4940096;29;20051;-83
2022/04/04 14:36:08;;;;;;;8.25;4.90;;;9.00;57.40;;;;;;4920972;29;20082;-82
2022/04/04 14:38:37;;;;;;;7.72;5.00;;;9.90;56.00;;;;;;4940510;29;20460;-83
2022/04/04 14:41:06;;;;;;;8.50;5.03;;;9.40;55.40;;;;;;4939859;29;20066;-82
2022/04/04 14:43:33;;;;;;;6.78;4.53;;;9.70;55.40;;;;;;4939220;29;20091;-83
2022/04/04 14:46:01;;;;;;;7.85;5.28;;;9.80;55.40;;;;;;4938631;29;20077;-83
2022/04/04 14:48:30;;;;;;;8.25;4.68;;;9.80;55.00;;;;;;4938449;29;20327;-83
2022/04/04 14:50:57;;;;;;;8.90;5.55;;;9.20;56.10;;;;;;4943988;29;20098;-82
2022/04/04 14:53:24;;;;;;;9.30;5.63;;;8.70;57.10;;;;;;4949146;29;20146;-79
2022/04/04 14:55:56;;;;;;;9.65;5.50;;;8.20;57.50;;;;;;4952530;29;20047;-87
2022/04/04 14:58:25;;;;;;;7.88;5.20;;;8.00;58.20;;;;;;4954213;29;20078;-84
2022/04/04 15:07:43;;;;;;;9.65;5.78;;;8.10;58.70;;;;;;4952167;29;20047;-85
2022/04/04 15:10:12;;;;;;;8.13;5.57;;;7.80;59.30;;;;;;4949505;28;20098;-85
2022/04/04 15:15:23;;;;;;;9.32;5.60;;;8.00;60.10;;;;;;4950948;29;20059;-87
2022/04/04 15:20:35;;;;;;;9.55;5.78;;;7.70;61.20;;;;;;4945939;29;20061;-89
2022/04/04 15:38:02;;;;;;;8.95;6.15;;;7.40;64.20;;;;;;4942088;29;20098;-86
2022/04/04 15:40:31;;;;;;;9.27;6.15;;;7.20;64.40;;;;;;4925385;29;20055;-87
2022/04/04 15:42:59;;;;;;;10.20;6.80;;;7.20;64.90;;;;;;4925471;29;20403;-88
2022/04/04 15:45:30;;;;;;;9.52;5.80;;;7.20;64.60;;;;;;4939739;29;20140;-87
2022/04/04 15:47:58;;;;;;;9.95;6.63;;;7.40;64.80;;;;;;4943607;29;20055;-93
2022/04/04 15:50:25;;;;;;;9.77;6.57;;;7.20;64.90;;;;;;4909333;29;20098;-88
2022/04/04 15:52:53;;;;;;;9.57;6.13;;;7.10;65.20;;;;;;4922797;29;20064;-86
2022/04/04 15:55:20;;;;;;;10.43;6.10;;;7.20;65.70;;;;;;4932142;29;20466;-87
2022/04/04 15:57:50;;;;;;;10.00;6.32;;;7.30;65.90;;;;;;4924723;29;20663;-88
2022/04/04 16:03:32;;;;;;;9.82;6.00;;;7.20;66.50;;;;;;4937763;29;20525;-91
2022/04/04 16:06:00;;;;;;;9.07;6.00;;;7.40;66.50;;;;;;4937634;28;20062;-87
2022/04/04 16:08:28;;;;;;;9.57;6.28;;;7.30;66.30;;;;;;4935974;29;20051;-86
2022/04/04 16:10:57;;;;;;;9.25;6.10;;;7.30;66.60;;;;;;4942992;29;20052;-88
2022/04/04 16:13:36;;;;;;;9.45;6.38;;;7.30;66.50;;;;;;4956457;29;20031;-89
2022/04/04 16:16:11;;;;;;;10.27;6.53;;;7.30;66.90;;;;;;4949561;28;20425;-88
2022/04/04 16:19:23;;;;;;;10.23;6.22;;;7.30;67.00;;;;;;4952876;29;20052;-88
2022/04/04 16:21:52;;;;;;;8.95;5.95;;;7.20;67.40;;;;;;4938762;29;20052;-84
2022/04/04 16:27:04;;;;;;;8.88;5.93;;;7.30;67.90;;;;;;4934072;29;20155;-89
2022/04/04 16:29:31;;;;;;;8.13;5.95;;;7.20;67.90;;;;;;4919450;29;20087;-86
2022/04/04 16:36:08;;;;;;;9.90;5.80;;;7.10;68.10;;;;;;4933431;29;20063;-92
2022/04/04 16:42:09;;;;;;;9.43;5.95;;;7.00;68.80;;;;;;4974118;23;20068;-92
2022/04/04 16:44:37;;;;;;;8.70;5.78;;;7.00;68.90;;;;;;4901089;29;20052;-83
2022/04/04 16:47:05;;;;;;;8.65;5.70;;;7.00;68.70;;;;;;4895150;29;20060;-89
2022/04/04 16:49:32;;;;;;;10.82;5.97;;;7.00;69.10;;;;;;4882115;29;20067;-91
2022/04/04 16:52:00;;;;;;;9.25;5.75;;;7.00;68.80;;;;;;4884414;29;20475;-91
2022/04/04 16:54:28;;;;;;;8.32;5.75;;;7.00;68.80;;;;;;4905394;29;20112;-93
2022/04/04 16:56:57;;;;;;;9.30;5.85;;;7.00;68.50;;;;;;4904119;29;20063;-91
2022/04/04 16:59:25;;;;;;;8.88;6.32;;;7.00;68.80;;;;;;4907863;29;20087;-81
2022/04/04 17:01:53;;;;;;;8.98;5.35;;;6.90;69.40;;;;;;4899858;29;20104;-87
2022/04/04 17:04:20;;;;;;;9.00;5.57;;;6.90;69.00;;;;;;4899221;29;20064;-92
2022/04/04 17:06:47;;;;;;;10.00;6.10;;;6.90;68.80;;;;;;4901851;29;20056;-87
2022/04/04 17:09:15;;;;;;;8.73;5.43;;;6.80;69.10;;;;;;4909406;29;20067;-89
2022/04/04 17:11:43;;;;;;;7.35;5.22;;;6.80;69.20;;;;;;4907096;29;20053;-88
2022/04/04 17:14:11;;;;;;;12.68;7.30;;;6.90;69.80;;;;;;4902825;29;20060;-86
2022/04/04 17:16:40;;;;;;;23.25;12.77;;;6.90;69.70;;;;;;4898258;29;20045;-87
2022/04/04 17:19:08;;;;;;;9.48;5.85;;;7.00;69.40;;;;;;4905152;29;20131;-87
2022/04/04 17:21:35;;;;;;;8.07;5.03;;;6.90;69.30;;;;;;4904339;29;20060;-88
2022/04/04 17:24:05;;;;;;;9.82;5.05;;;6.90;69.70;;;;;;4902725;29;20494;-88
2022/04/04 17:26:34;;;;;;;7.78;5.07;;;6.90;69.90;;;;;;4905425;29;20049;-89
2022/04/04 17:29:01;;;;;;;9.10;5.10;;;6.90;69.60;;;;;;4896964;29;20052;-87
2022/04/04 17:31:28;;;;;;;8.43;5.18;;;6.90;70.30;;;;;;4916993;29;20086;-89
2022/04/04 17:33:57;;;;;;;9.32;5.60;;;6.90;70.60;;;;;;4913526;29;20080;-90
2022/04/04 17:36:25;;;;;;;10.18;5.78;;;6.80;70.70;;;;;;4912604;29;20056;-90
2022/04/04 17:38:54;;;;;;;8.13;5.05;;;6.80;71.20;;;;;;4917173;29;20091;-90
2022/04/04 17:41:21;;;;;;;9.05;5.90;;;6.60;71.90;;;;;;4915686;29;20093;-85
2022/04/04 17:43:48;;;;;;;9.35;5.38;;;6.60;72.10;;;;;;4911370;29;20147;-87
2022/04/04 17:46:16;;;;;;;8.82;5.85;;;6.60;72.20;;;;;;4912508;29;20094;-84
2022/04/04 17:48:43;;;;;;;9.77;5.32;;;6.70;71.40;;;;;;4912897;29;20530;-89
2022/04/04 17:51:11;;;;;;;8.80;5.07;;;6.70;71.50;;;;;;4906983;29;20098;-87
2022/04/04 17:53:39;;;;;;;8.35;5.72;;;6.70;71.50;;;;;;4912358;29;20067;-86
2022/04/04 17:56:06;;;;;;;9.00;5.25;;;6.70;72.30;;;;;;4900043;29;20048;-86
2022/04/04 17:58:33;;;;;;;8.25;5.13;;;6.70;72.80;;;;;;4905129;29;20139;-86
2022/04/04 18:01:00;;;;;;;10.10;5.93;;;6.60;73.00;;;;;;4905369;29;20418;-86
2022/04/04 18:03:28;;;;;;;10.07;5.28;;;6.60;73.90;;;;;;4907392;29;20080;-86
2022/04/04 18:05:55;;;;;;;8.63;4.95;;;6.60;73.80;;;;;;4906897;29;20104;-86
2022/04/04 18:08:24;;;;;;;8.52;5.60;;;6.60;74.20;;;;;;4902045;29;21909;-86
2022/04/04 18:10:52;;;;;;;7.85;5.30;;;6.50;74.90;;;;;;4888463;29;20053;-86
2022/04/04 18:13:19;;;;;;;10.07;5.50;;;6.50;74.90;;;;;;4898028;29;20067;-83
2022/04/04 18:15:47;;;;;;;12.00;6.00;;;6.40;75.70;;;;;;4901797;29;20128;-86
2022/04/04 18:18:14;;;;;;;9.30;5.63;;;6.40;76.30;;;;;;4902086;29;20474;-87
2022/04/04 18:20:41;;;;;;;9.90;5.38;;;6.40;76.80;;;;;;4902672;29;20057;-86
2022/04/04 18:23:08;;;;;;;9.18;5.63;;;6.30;77.30;;;;;;4894286;29;20108;-85
2022/04/04 18:25:38;;;;;;;9.05;5.90;;;6.30;78.40;;;;;;4902522;29;20791;-86
2022/04/04 18:28:06;;;;;;;9.07;6.03;;;6.30;78.90;;;;;;4897193;29;20085;-84
2022/04/04 18:30:33;;;;;;;10.50;5.43;;;6.30;78.60;;;;;;4903905;29;20481;-83
2022/04/04 18:33:00;;;;;;;7.78;5.05;;;6.30;78.40;;;;;;4901983;29;20055;-90
2022/04/04 18:35:27;;;;;;;8.57;5.38;;;6.30;78.50;;;;;;4899915;29;20200;-88
2022/04/04 18:37:55;;;;;;;8.85;5.80;;;6.30;77.90;;;;;;4898449;29;20508;-88
2022/04/04 18:40:23;;;;;;;8.45;5.60;;;6.30;78.10;;;;;;4903103;29;20052;-87
2022/04/04 18:42:51;;;;;;;9.40;5.40;;;6.30;78.10;;;;;;4912911;29;20491;-91
2022/04/04 18:45:19;;;;;;;11.07;6.70;;;6.30;78.40;;;;;;4918411;29;20409;-89
2022/04/04 18:47:46;;;;;;;21.00;10.15;;;6.30;78.10;;;;;;4901169;29;20048;-84
2022/04/04 18:50:19;;;;;;;9.45;5.70;;;6.40;78.60;;;;;;4897950;29;20080;-84
2022/04/04 18:52:46;;;;;;;8.77;5.93;;;6.30;78.70;;;;;;4892454;29;20052;-91
2022/04/04 18:55:13;;;;;;;8.93;5.60;;;6.30;79.00;;;;;;4900542;29;20107;-83
2022/04/04 18:57:40;;;;;;;10.10;6.25;;;6.30;79.60;;;;;;4882583;29;20084;-88
2022/04/04 19:00:12;;;;;;;10.07;5.45;;;6.30;79.90;;;;;;4897994;29;20147;-90
2022/04/04 19:02:40;;;;;;;9.15;6.10;;;6.30;79.90;;;;;;4901731;29;20048;-87
2022/04/04 19:05:08;;;;;;;9.70;5.80;;;6.30;80.90;;;;;;4901161;29;20135;-89
2022/04/04 19:07:36;;;;;;;10.13;6.25;;;6.30;80.80;;;;;;4901061;29;20410;-91
2022/04/04 19:10:04;;;;;;;9.50;5.90;;;6.30;80.90;;;;;;4893677;29;20095;-88
2022/04/04 19:12:31;;;;;;;10.00;6.18;;;6.30;80.50;;;;;;4901373;29;20057;-91
2022/04/04 19:14:58;;;;;;;9.10;5.90;;;6.30;79.80;;;;;;4905597;29;20053;-91
2022/04/04 19:17:26;;;;;;;9.18;6.18;;;6.30;80.70;;;;;;4905012;29;20080;-95